sensor_id;sensor_type;location;lat;lon;timestamp;P1;durP1;ratioP1;P2;durP2;ratioP2
9005;SDS011;62284;50.702;7.140;2022-10-31T00:01:24;7.22;;;6.25;;
9005;SDS011;62284;50.702;7.140;2022-10-31T00:03:53;7.82;;;6.60;;
9005;SDS011;62284;50.702;7.140;2022-10-31T00:06:20;7.50;;;6.15;;
9005;SDS011;62284;50.702;7.140;2022-10-31T00:08:47;7.65;;;6.70;;
9005;SDS011;62284;50.702;7.140;2022-10-31T00:11:18;6.75;;;6.10;;
9005;SDS011;62284;50.702;7.140;2022-10-31T00:13:45;6.97;;;6.28;;
9005;SDS011;62284;50.702;7.140;2022-10-31T00:16:17;8.32;;;6.32;;
9005;SDS011;62284;50.702;7.140;2022-10-31T00:18:47;6.45;;;5.95;;
9005;SDS011;62284;50.702;7.140;2022-10-31T00:21:14;6.80;;;6.15;;
9005;SDS011;62284;50.702;7.140;2022-10-31T00:23:41;7.10;;;6.43;;
9005;SDS011;62284;50.702;7.140;2022-10-31T00:26:08;6.65;;;6.03;;
9005;SDS011;62284;50.702;7.140;2022-10-31T00:28:35;7.75;;;6.32;;
9005;SDS011;62284;50.702;7.140;2022-10-31T00:31:02;8.38;;;6.88;;
9005;SDS011;62284;50.702;7.140;2022-10-31T00:33:32;7.53;;;6.57;;
9005;SDS011;62284;50.702;7.140;2022-10-31T00:36:00;7.10;;;6.40;;
9005;SDS011;62284;50.702;7.140;2022-10-31T00:38:27;7.63;;;6.72;;
9005;SDS011;62284;50.702;7.140;2022-10-31T00:40:54;6.75;;;5.78;;
9005;SDS011;62284;50.702;7.140;2022-10-31T00:43:21;7.25;;;6.57;;
9005;SDS011;62284;50.702;7.140;2022-10-31T00:45:47;7.22;;;5.80;;
9005;SDS011;62284;50.702;7.140;2022-10-31T00:48:14;7.18;;;5.88;;
9005;SDS011;62284;50.702;7.140;2022-10-31T00:50:43;8.25;;;6.40;;
9005;SDS011;62284;50.702;7.140;2022-10-31T00:53:09;7.30;;;6.60;;
9005;SDS011;62284;50.702;7.140;2022-10-31T00:55:36;6.65;;;6.05;;
9005;SDS011;62284;50.702;7.140;2022-10-31T00:58:03;6.70;;;5.88;;
9005;SDS011;62284;50.702;7.140;2022-10-31T01:00:30;6.80;;;6.18;;
9005;SDS011;62284;50.702;7.140;2022-10-31T01:02:57;9.13;;;6.95;;
9005;SDS011;62284;50.702;7.140;2022-10-31T01:05:24;7.28;;;6.10;;
9005;SDS011;62284;50.702;7.140;2022-10-31T01:07:52;6.47;;;5.90;;
9005;SDS011;62284;50.702;7.140;2022-10-31T01:10:19;8.15;;;5.90;;
9005;SDS011;62284;50.702;7.140;2022-10-31T01:12:46;8.45;;;6.25;;
9005;SDS011;62284;50.702;7.140;2022-10-31T01:15:16;7.22;;;5.80;;
9005;SDS011;62284;50.702;7.140;2022-10-31T01:17:45;7.35;;;5.72;;
9005;SDS011;62284;50.702;7.140;2022-10-31T01:20:12;6.50;;;5.82;;
9005;SDS011;62284;50.702;7.140;2022-10-31T01:22:40;6.75;;;6.13;;
9005;SDS011;62284;50.702;7.140;2022-10-31T01:25:08;7.28;;;6.20;;
9005;SDS011;62284;50.702;7.140;2022-10-31T01:27:35;6.18;;;5.68;;
9005;SDS011;62284;50.702;7.140;2022-10-31T01:30:03;7.22;;;6.50;;
9005;SDS011;62284;50.702;7.140;2022-10-31T01:32:30;7.45;;;6.50;;
9005;SDS011;62284;50.702;7.140;2022-10-31T01:34:57;7.88;;;6.70;;
9005;SDS011;62284;50.702;7.140;2022-10-31T01:37:24;7.32;;;6.47;;
9005;SDS011;62284;50.702;7.140;2022-10-31T01:39:51;8.70;;;6.90;;
9005;SDS011;62284;50.702;7.140;2022-10-31T01:42:19;7.40;;;6.18;;
9005;SDS011;62284;50.702;7.140;2022-10-31T01:44:50;6.93;;;6.32;;
9005;SDS011;62284;50.702;7.140;2022-10-31T01:47:27;6.97;;;5.80;;
9005;SDS011;62284;50.702;7.140;2022-10-31T01:50:00;6.88;;;6.22;;
9005;SDS011;62284;50.702;7.140;2022-10-31T01:52:31;6.55;;;5.93;;
9005;SDS011;62284;50.702;7.140;2022-10-31T01:55:03;6.90;;;6.30;;
9005;SDS011;62284;50.702;7.140;2022-10-31T01:57:35;6.85;;;6.15;;
9005;SDS011;62284;50.702;7.140;2022-10-31T02:00:07;7.72;;;6.90;;
9005;SDS011;62284;50.702;7.140;2022-10-31T02:02:35;6.93;;;6.28;;
9005;SDS011;62284;50.702;7.140;2022-10-31T02:05:04;8.85;;;6.45;;
9005;SDS011;62284;50.702;7.140;2022-10-31T02:07:36;6.85;;;6.22;;
9005;SDS011;62284;50.702;7.140;2022-10-31T02:10:07;6.82;;;6.13;;
9005;SDS011;62284;50.702;7.140;2022-10-31T02:12:35;6.43;;;5.82;;
9005;SDS011;62284;50.702;7.140;2022-10-31T02:15:03;6.90;;;6.30;;
9005;SDS011;62284;50.702;7.140;2022-10-31T02:17:31;6.75;;;5.65;;
9005;SDS011;62284;50.702;7.140;2022-10-31T02:20:00;9.25;;;6.30;;
9005;SDS011;62284;50.702;7.140;2022-10-31T02:22:34;8.05;;;5.78;;
9005;SDS011;62284;50.702;7.140;2022-10-31T02:25:22;8.05;;;5.80;;
9005;SDS011;62284;50.702;7.140;2022-10-31T02:28:22;6.22;;;5.60;;
9005;SDS011;62284;50.702;7.140;2022-10-31T02:31:05;6.70;;;5.90;;
9005;SDS011;62284;50.702;7.140;2022-10-31T02:33:48;6.22;;;5.40;;
9005;SDS011;62284;50.702;7.140;2022-10-31T02:36:19;6.72;;;5.53;;
9005;SDS011;62284;50.702;7.140;2022-10-31T02:38:55;6.95;;;5.72;;
9005;SDS011;62284;50.702;7.140;2022-10-31T02:41:30;6.07;;;5.43;;
9005;SDS011;62284;50.702;7.140;2022-10-31T02:44:02;6.80;;;6.20;;
9005;SDS011;62284;50.702;7.140;2022-10-31T02:46:37;6.00;;;5.40;;
9005;SDS011;62284;50.702;7.140;2022-10-31T02:49:11;10.10;;;6.15;;
9005;SDS011;62284;50.702;7.140;2022-10-31T02:51:44;6.72;;;5.60;;
9005;SDS011;62284;50.702;7.140;2022-10-31T02:54:18;7.03;;;6.13;;
9005;SDS011;62284;50.702;7.140;2022-10-31T02:56:47;7.47;;;5.82;;
9005;SDS011;62284;50.702;7.140;2022-10-31T02:59:17;7.25;;;6.30;;
9005;SDS011;62284;50.702;7.140;2022-10-31T03:01:52;9.32;;;6.35;;
9005;SDS011;62284;50.702;7.140;2022-10-31T03:04:53;7.75;;;6.30;;
9005;SDS011;62284;50.702;7.140;2022-10-31T03:07:29;8.25;;;5.97;;
9005;SDS011;62284;50.702;7.140;2022-10-31T03:10:03;7.70;;;6.32;;
9005;SDS011;62284;50.702;7.140;2022-10-31T03:12:37;7.95;;;5.70;;
9005;SDS011;62284;50.702;7.140;2022-10-31T03:15:09;6.53;;;5.95;;
9005;SDS011;62284;50.702;7.140;2022-10-31T03:17:44;8.98;;;6.03;;
9005;SDS011;62284;50.702;7.140;2022-10-31T03:20:19;8.90;;;6.00;;
9005;SDS011;62284;50.702;7.140;2022-10-31T03:22:50;6.45;;;5.85;;
9005;SDS011;62284;50.702;7.140;2022-10-31T03:25:18;7.30;;;5.63;;
9005;SDS011;62284;50.702;7.140;2022-10-31T03:27:45;7.40;;;5.72;;
9005;SDS011;62284;50.702;7.140;2022-10-31T03:30:13;7.05;;;6.07;;
9005;SDS011;62284;50.702;7.140;2022-10-31T03:32:43;6.47;;;5.60;;
9005;SDS011;62284;50.702;7.140;2022-10-31T03:35:14;7.03;;;6.38;;
9005;SDS011;62284;50.702;7.140;2022-10-31T03:37:43;6.85;;;6.20;;
9005;SDS011;62284;50.702;7.140;2022-10-31T03:40:11;6.75;;;5.63;;
9005;SDS011;62284;50.702;7.140;2022-10-31T03:42:41;8.10;;;6.53;;
9005;SDS011;62284;50.702;7.140;2022-10-31T03:45:13;6.70;;;6.10;;
9005;SDS011;62284;50.702;7.140;2022-10-31T03:47:46;6.63;;;6.03;;
9005;SDS011;62284;50.702;7.140;2022-10-31T03:50:14;8.27;;;6.88;;
9005;SDS011;62284;50.702;7.140;2022-10-31T03:52:43;7.82;;;6.70;;
9005;SDS011;62284;50.702;7.140;2022-10-31T03:55:16;7.50;;;6.80;;
9005;SDS011;62284;50.702;7.140;2022-10-31T03:57:45;12.90;;;6.95;;
9005;SDS011;62284;50.702;7.140;2022-10-31T04:00:19;6.93;;;6.25;;
9005;SDS011;62284;50.702;7.140;2022-10-31T04:02:50;7.35;;;6.55;;
9005;SDS011;62284;50.702;7.140;2022-10-31T04:05:23;8.60;;;6.82;;
9005;SDS011;62284;50.702;7.140;2022-10-31T04:07:51;6.70;;;6.00;;
9005;SDS011;62284;50.702;7.140;2022-10-31T04:10:21;7.50;;;6.18;;
9005;SDS011;62284;50.702;7.140;2022-10-31T04:12:52;7.22;;;6.47;;
9005;SDS011;62284;50.702;7.140;2022-10-31T04:15:22;7.40;;;6.55;;
9005;SDS011;62284;50.702;7.140;2022-10-31T04:17:53;7.65;;;6.82;;
9005;SDS011;62284;50.702;7.140;2022-10-31T04:20:30;7.75;;;6.28;;
9005;SDS011;62284;50.702;7.140;2022-10-31T04:22:57;10.30;;;7.28;;
9005;SDS011;62284;50.702;7.140;2022-10-31T04:25:24;7.32;;;6.57;;
9005;SDS011;62284;50.702;7.140;2022-10-31T04:27:51;9.20;;;6.95;;
9005;SDS011;62284;50.702;7.140;2022-10-31T04:30:18;7.50;;;6.80;;
9005;SDS011;62284;50.702;7.140;2022-10-31T04:32:45;7.53;;;6.50;;
9005;SDS011;62284;50.702;7.140;2022-10-31T04:35:13;7.47;;;6.32;;
9005;SDS011;62284;50.702;7.140;2022-10-31T04:37:41;7.25;;;6.55;;
9005;SDS011;62284;50.702;7.140;2022-10-31T04:40:08;7.88;;;7.05;;
9005;SDS011;62284;50.702;7.140;2022-10-31T04:42:35;7.03;;;6.15;;
9005;SDS011;62284;50.702;7.140;2022-10-31T04:45:03;7.68;;;6.88;;
9005;SDS011;62284;50.702;7.140;2022-10-31T04:47:30;6.75;;;6.15;;
9005;SDS011;62284;50.702;7.140;2022-10-31T04:49:58;7.40;;;6.68;;
9005;SDS011;62284;50.702;7.140;2022-10-31T04:52:26;7.65;;;6.93;;
9005;SDS011;62284;50.702;7.140;2022-10-31T04:54:53;7.38;;;6.53;;
9005;SDS011;62284;50.702;7.140;2022-10-31T04:57:20;8.70;;;6.97;;
9005;SDS011;62284;50.702;7.140;2022-10-31T04:59:47;8.73;;;6.50;;
9005;SDS011;62284;50.702;7.140;2022-10-31T05:02:14;9.07;;;7.35;;
9005;SDS011;62284;50.702;7.140;2022-10-31T05:04:41;9.40;;;6.53;;
9005;SDS011;62284;50.702;7.140;2022-10-31T05:07:08;7.22;;;6.63;;
9005;SDS011;62284;50.702;7.140;2022-10-31T05:09:36;9.10;;;7.25;;
9005;SDS011;62284;50.702;7.140;2022-10-31T05:12:03;10.93;;;6.95;;
9005;SDS011;62284;50.702;7.140;2022-10-31T05:14:30;8.20;;;7.15;;
9005;SDS011;62284;50.702;7.140;2022-10-31T05:16:57;7.35;;;6.57;;
9005;SDS011;62284;50.702;7.140;2022-10-31T05:19:24;7.68;;;6.93;;
9005;SDS011;62284;50.702;7.140;2022-10-31T05:21:51;7.50;;;6.90;;
9005;SDS011;62284;50.702;7.140;2022-10-31T05:24:18;8.43;;;7.05;;
9005;SDS011;62284;50.702;7.140;2022-10-31T05:26:48;7.15;;;6.13;;
9005;SDS011;62284;50.702;7.140;2022-10-31T05:29:15;9.48;;;6.15;;
9005;SDS011;62284;50.702;7.140;2022-10-31T05:31:42;8.00;;;7.00;;
9005;SDS011;62284;50.702;7.140;2022-10-31T05:34:09;7.43;;;6.68;;
9005;SDS011;62284;50.702;7.140;2022-10-31T05:36:35;9.30;;;6.55;;
9005;SDS011;62284;50.702;7.140;2022-10-31T05:39:02;7.20;;;6.45;;
9005;SDS011;62284;50.702;7.140;2022-10-31T05:41:29;8.80;;;6.85;;
9005;SDS011;62284;50.702;7.140;2022-10-31T05:43:57;7.47;;;6.70;;
9005;SDS011;62284;50.702;7.140;2022-10-31T05:46:24;7.05;;;6.43;;
9005;SDS011;62284;50.702;7.140;2022-10-31T05:48:51;7.45;;;6.75;;
9005;SDS011;62284;50.702;7.140;2022-10-31T05:51:18;7.88;;;6.72;;
9005;SDS011;62284;50.702;7.140;2022-10-31T05:53:45;7.25;;;6.47;;
9005;SDS011;62284;50.702;7.140;2022-10-31T05:56:13;7.35;;;6.65;;
9005;SDS011;62284;50.702;7.140;2022-10-31T05:58:40;7.40;;;6.70;;
9005;SDS011;62284;50.702;7.140;2022-10-31T06:01:08;7.85;;;6.70;;
9005;SDS011;62284;50.702;7.140;2022-10-31T06:03:35;8.73;;;6.80;;
9005;SDS011;62284;50.702;7.140;2022-10-31T06:06:02;7.63;;;6.93;;
9005;SDS011;62284;50.702;7.140;2022-10-31T06:08:29;7.45;;;6.72;;
9005;SDS011;62284;50.702;7.140;2022-10-31T06:10:55;7.25;;;6.50;;
9005;SDS011;62284;50.702;7.140;2022-10-31T06:13:22;6.93;;;6.28;;
9005;SDS011;62284;50.702;7.140;2022-10-31T06:15:49;10.75;;;7.15;;
9005;SDS011;62284;50.702;7.140;2022-10-31T06:18:17;7.55;;;6.68;;
9005;SDS011;62284;50.702;7.140;2022-10-31T06:20:44;7.47;;;6.65;;
9005;SDS011;62284;50.702;7.140;2022-10-31T06:23:11;8.55;;;7.75;;
9005;SDS011;62284;50.702;7.140;2022-10-31T06:25:38;8.02;;;7.22;;
9005;SDS011;62284;50.702;7.140;2022-10-31T06:28:05;8.35;;;7.47;;
9005;SDS011;62284;50.702;7.140;2022-10-31T06:30:32;8.05;;;7.32;;
9005;SDS011;62284;50.702;7.140;2022-10-31T06:33:01;7.93;;;7.15;;
9005;SDS011;62284;50.702;7.140;2022-10-31T06:35:30;8.73;;;7.93;;
9005;SDS011;62284;50.702;7.140;2022-10-31T06:37:57;9.35;;;8.32;;
9005;SDS011;62284;50.702;7.140;2022-10-31T06:40:24;7.82;;;7.10;;
9005;SDS011;62284;50.702;7.140;2022-10-31T06:42:58;8.20;;;7.40;;
9005;SDS011;62284;50.702;7.140;2022-10-31T06:45:25;8.02;;;7.20;;
9005;SDS011;62284;50.702;7.140;2022-10-31T06:47:53;8.52;;;7.53;;
9005;SDS011;62284;50.702;7.140;2022-10-31T06:50:20;8.48;;;7.68;;
9005;SDS011;62284;50.702;7.140;2022-10-31T06:52:52;10.52;;;7.68;;
9005;SDS011;62284;50.702;7.140;2022-10-31T06:55:20;7.90;;;6.97;;
9005;SDS011;62284;50.702;7.140;2022-10-31T06:57:51;8.55;;;7.75;;
9005;SDS011;62284;50.702;7.140;2022-10-31T07:00:18;8.15;;;7.35;;
9005;SDS011;62284;50.702;7.140;2022-10-31T07:02:52;8.27;;;6.72;;
9005;SDS011;62284;50.702;7.140;2022-10-31T07:05:19;7.40;;;6.70;;
9005;SDS011;62284;50.702;7.140;2022-10-31T07:07:46;8.52;;;7.57;;
9005;SDS011;62284;50.702;7.140;2022-10-31T07:10:15;7.13;;;6.53;;
9005;SDS011;62284;50.702;7.140;2022-10-31T07:12:42;8.43;;;7.50;;
9005;SDS011;62284;50.702;7.140;2022-10-31T07:15:09;7.95;;;6.65;;
9005;SDS011;62284;50.702;7.140;2022-10-31T07:17:36;8.38;;;7.57;;
9005;SDS011;62284;50.702;7.140;2022-10-31T07:20:03;8.82;;;7.95;;
9005;SDS011;62284;50.702;7.140;2022-10-31T07:22:34;7.75;;;7.03;;
9005;SDS011;62284;50.702;7.140;2022-10-31T07:25:01;9.38;;;7.72;;
9005;SDS011;62284;50.702;7.140;2022-10-31T07:27:34;7.45;;;6.75;;
9005;SDS011;62284;50.702;7.140;2022-10-31T07:30:02;9.43;;;7.80;;
9005;SDS011;62284;50.702;7.140;2022-10-31T07:32:36;8.43;;;7.63;;
9005;SDS011;62284;50.702;7.140;2022-10-31T07:35:04;8.68;;;7.68;;
9005;SDS011;62284;50.702;7.140;2022-10-31T07:37:30;8.50;;;7.70;;
9005;SDS011;62284;50.702;7.140;2022-10-31T07:39:57;9.20;;;8.30;;
9005;SDS011;62284;50.702;7.140;2022-10-31T07:42:24;9.27;;;8.35;;
9005;SDS011;62284;50.702;7.140;2022-10-31T07:44:52;11.25;;;8.40;;
9005;SDS011;62284;50.702;7.140;2022-10-31T07:47:19;10.45;;;8.85;;
9005;SDS011;62284;50.702;7.140;2022-10-31T07:49:46;10.23;;;8.70;;
9005;SDS011;62284;50.702;7.140;2022-10-31T07:52:13;10.07;;;9.05;;
9005;SDS011;62284;50.702;7.140;2022-10-31T07:54:40;11.15;;;8.80;;
9005;SDS011;62284;50.702;7.140;2022-10-31T07:57:07;10.07;;;9.05;;
9005;SDS011;62284;50.702;7.140;2022-10-31T07:59:34;9.93;;;8.93;;
9005;SDS011;62284;50.702;7.140;2022-10-31T08:02:02;10.38;;;9.27;;
9005;SDS011;62284;50.702;7.140;2022-10-31T08:04:29;10.68;;;9.15;;
9005;SDS011;62284;50.702;7.140;2022-10-31T08:06:56;10.10;;;9.10;;
9005;SDS011;62284;50.702;7.140;2022-10-31T08:09:23;10.27;;;9.10;;
9005;SDS011;62284;50.702;7.140;2022-10-31T08:11:49;10.70;;;9.70;;
9005;SDS011;62284;50.702;7.140;2022-10-31T08:14:16;10.35;;;9.15;;
9005;SDS011;62284;50.702;7.140;2022-10-31T08:16:43;10.25;;;9.18;;
9005;SDS011;62284;50.702;7.140;2022-10-31T08:19:11;10.68;;;9.02;;
9005;SDS011;62284;50.702;7.140;2022-10-31T08:21:38;12.43;;;9.43;;
9005;SDS011;62284;50.702;7.140;2022-10-31T08:24:05;12.43;;;10.20;;
9005;SDS011;62284;50.702;7.140;2022-10-31T08:26:32;11.98;;;9.65;;
9005;SDS011;62284;50.702;7.140;2022-10-31T08:28:59;10.90;;;9.85;;
9005;SDS011;62284;50.702;7.140;2022-10-31T08:31:27;11.60;;;9.48;;
9005;SDS011;62284;50.702;7.140;2022-10-31T08:33:54;14.00;;;9.93;;
9005;SDS011;62284;50.702;7.140;2022-10-31T08:36:23;11.48;;;10.35;;
9005;SDS011;62284;50.702;7.140;2022-10-31T08:38:50;12.05;;;10.27;;
9005;SDS011;62284;50.702;7.140;2022-10-31T08:41:16;10.68;;;9.60;;
9005;SDS011;62284;50.702;7.140;2022-10-31T08:43:43;11.18;;;9.93;;
9005;SDS011;62284;50.702;7.140;2022-10-31T08:46:10;14.43;;;10.68;;
9005;SDS011;62284;50.702;7.140;2022-10-31T08:48:38;14.25;;;9.48;;
9005;SDS011;62284;50.702;7.140;2022-10-31T08:51:05;11.63;;;10.05;;
9005;SDS011;62284;50.702;7.140;2022-10-31T08:53:33;10.70;;;9.60;;
9005;SDS011;62284;50.702;7.140;2022-10-31T08:56:00;13.43;;;10.07;;
9005;SDS011;62284;50.702;7.140;2022-10-31T08:58:27;10.63;;;9.52;;
9005;SDS011;62284;50.702;7.140;2022-10-31T09:00:54;12.77;;;10.55;;
9005;SDS011;62284;50.702;7.140;2022-10-31T09:03:22;10.88;;;9.75;;
9005;SDS011;62284;50.702;7.140;2022-10-31T09:05:53;13.38;;;10.15;;
9005;SDS011;62284;50.702;7.140;2022-10-31T09:08:21;12.45;;;11.25;;
9005;SDS011;62284;50.702;7.140;2022-10-31T09:10:50;12.40;;;10.45;;
9005;SDS011;62284;50.702;7.140;2022-10-31T09:13:18;11.35;;;10.25;;
9005;SDS011;62284;50.702;7.140;2022-10-31T09:15:46;11.38;;;10.27;;
9005;SDS011;62284;50.702;7.140;2022-10-31T09:18:14;11.82;;;9.50;;
9005;SDS011;62284;50.702;7.140;2022-10-31T09:20:43;12.02;;;10.23;;
9005;SDS011;62284;50.702;7.140;2022-10-31T09:23:12;11.32;;;10.23;;
9005;SDS011;62284;50.702;7.140;2022-10-31T09:25:40;11.40;;;10.23;;
9005;SDS011;62284;50.702;7.140;2022-10-31T09:28:10;10.88;;;9.88;;
9005;SDS011;62284;50.702;7.140;2022-10-31T09:30:38;11.30;;;9.93;;
9005;SDS011;62284;50.702;7.140;2022-10-31T09:33:06;10.73;;;9.63;;
9005;SDS011;62284;50.702;7.140;2022-10-31T09:35:35;10.57;;;9.55;;
9005;SDS011;62284;50.702;7.140;2022-10-31T09:38:04;9.05;;;8.15;;
9005;SDS011;62284;50.702;7.140;2022-10-31T09:40:33;10.23;;;9.23;;
9005;SDS011;62284;50.702;7.140;2022-10-31T09:43:04;10.30;;;9.18;;
9005;SDS011;62284;50.702;7.140;2022-10-31T09:45:40;11.00;;;9.35;;
9005;SDS011;62284;50.702;7.140;2022-10-31T09:51:04;10.05;;;8.93;;
9005;SDS011;62284;50.702;7.140;2022-10-31T09:53:37;10.27;;;8.27;;
9005;SDS011;62284;50.702;7.140;2022-10-31T09:56:08;12.45;;;9.38;;
9005;SDS011;62284;50.702;7.140;2022-10-31T09:58:41;9.65;;;8.65;;
9005;SDS011;62284;50.702;7.140;2022-10-31T10:01:16;9.10;;;8.30;;
9005;SDS011;62284;50.702;7.140;2022-10-31T10:04:05;8.60;;;7.80;;
9005;SDS011;62284;50.702;7.140;2022-10-31T10:06:44;9.13;;;7.63;;
9005;SDS011;62284;50.702;7.140;2022-10-31T10:09:15;11.32;;;8.30;;
9005;SDS011;62284;50.702;7.140;2022-10-31T10:11:46;9.35;;;7.97;;
9005;SDS011;62284;50.702;7.140;2022-10-31T10:14:32;8.20;;;7.38;;
9005;SDS011;62284;50.702;7.140;2022-10-31T10:17:17;8.02;;;7.28;;
9005;SDS011;62284;50.702;7.140;2022-10-31T10:20:13;8.32;;;7.22;;
9005;SDS011;62284;50.702;7.140;2022-10-31T10:22:50;8.20;;;7.40;;
9005;SDS011;62284;50.702;7.140;2022-10-31T10:25:23;8.07;;;7.13;;
9005;SDS011;62284;50.702;7.140;2022-10-31T10:27:59;7.75;;;6.95;;
9005;SDS011;62284;50.702;7.140;2022-10-31T10:30:37;7.38;;;6.60;;
9005;SDS011;62284;50.702;7.140;2022-10-31T10:33:08;8.27;;;6.90;;
9005;SDS011;62284;50.702;7.140;2022-10-31T10:35:39;9.05;;;7.00;;
9005;SDS011;62284;50.702;7.140;2022-10-31T10:38:10;8.05;;;6.70;;
9005;SDS011;62284;50.702;7.140;2022-10-31T10:40:43;8.70;;;6.90;;
9005;SDS011;62284;50.702;7.140;2022-10-31T10:43:19;10.02;;;7.63;;
9005;SDS011;62284;50.702;7.140;2022-10-31T10:45:51;8.25;;;7.07;;
9005;SDS011;62284;50.702;7.140;2022-10-31T10:48:42;10.88;;;7.75;;
9005;SDS011;62284;50.702;7.140;2022-10-31T10:51:18;8.07;;;6.97;;
9005;SDS011;62284;50.702;7.140;2022-10-31T10:53:50;7.63;;;6.47;;
9005;SDS011;62284;50.702;7.140;2022-10-31T10:56:36;9.40;;;7.45;;
9005;SDS011;62284;50.702;7.140;2022-10-31T10:59:09;10.32;;;7.20;;
9005;SDS011;62284;50.702;7.140;2022-10-31T11:01:41;9.60;;;7.68;;
9005;SDS011;62284;50.702;7.140;2022-10-31T11:04:25;9.65;;;7.00;;
9005;SDS011;62284;50.702;7.140;2022-10-31T11:06:59;9.15;;;6.82;;
9005;SDS011;62284;50.702;7.140;2022-10-31T11:09:29;8.82;;;7.05;;
9005;SDS011;62284;50.702;7.140;2022-10-31T11:11:56;8.18;;;6.38;;
9005;SDS011;62284;50.702;7.140;2022-10-31T11:14:24;8.27;;;7.15;;
9005;SDS011;62284;50.702;7.140;2022-10-31T11:16:55;9.55;;;7.43;;
9005;SDS011;62284;50.702;7.140;2022-10-31T11:19:35;10.18;;;7.43;;
9005;SDS011;62284;50.702;7.140;2022-10-31T11:22:05;8.25;;;6.45;;
9005;SDS011;62284;50.702;7.140;2022-10-31T11:24:36;9.10;;;6.38;;
9005;SDS011;62284;50.702;7.140;2022-10-31T11:27:12;7.10;;;5.80;;
9005;SDS011;62284;50.702;7.140;2022-10-31T11:29:41;6.00;;;5.40;;
9005;SDS011;62284;50.702;7.140;2022-10-31T11:32:15;9.57;;;5.63;;
9005;SDS011;62284;50.702;7.140;2022-10-31T11:34:45;7.45;;;5.07;;
9005;SDS011;62284;50.702;7.140;2022-10-31T11:37:15;6.40;;;4.82;;
9005;SDS011;62284;50.702;7.140;2022-10-31T11:39:45;6.10;;;5.20;;
9005;SDS011;62284;50.702;7.140;2022-10-31T11:42:18;5.38;;;4.88;;
9005;SDS011;62284;50.702;7.140;2022-10-31T11:44:47;6.28;;;4.57;;
9005;SDS011;62284;50.702;7.140;2022-10-31T11:47:17;6.60;;;5.22;;
9005;SDS011;62284;50.702;7.140;2022-10-31T11:49:57;6.78;;;4.45;;
9005;SDS011;62284;50.702;7.140;2022-10-31T11:52:29;6.93;;;4.47;;
9005;SDS011;62284;50.702;7.140;2022-10-31T11:54:59;6.30;;;4.68;;
9005;SDS011;62284;50.702;7.140;2022-10-31T11:57:32;7.22;;;5.20;;
9005;SDS011;62284;50.702;7.140;2022-10-31T12:00:20;6.25;;;4.80;;
9005;SDS011;62284;50.702;7.140;2022-10-31T12:02:49;5.10;;;4.45;;
9005;SDS011;62284;50.702;7.140;2022-10-31T12:05:17;5.75;;;4.47;;
9005;SDS011;62284;50.702;7.140;2022-10-31T12:07:47;5.15;;;4.72;;
9005;SDS011;62284;50.702;7.140;2022-10-31T12:10:15;5.78;;;4.70;;
9005;SDS011;62284;50.702;7.140;2022-10-31T12:12:46;7.95;;;4.68;;
9005;SDS011;62284;50.702;7.140;2022-10-31T12:15:27;5.18;;;4.25;;
9005;SDS011;62284;50.702;7.140;2022-10-31T12:18:02;5.05;;;4.18;;
9005;SDS011;62284;50.702;7.140;2022-10-31T12:20:50;6.53;;;4.22;;
9005;SDS011;62284;50.702;7.140;2022-10-31T12:23:32;7.47;;;4.75;;
9005;SDS011;62284;50.702;7.140;2022-10-31T12:26:09;6.47;;;4.80;;
9005;SDS011;62284;50.702;7.140;2022-10-31T12:28:45;5.47;;;4.40;;
9005;SDS011;62284;50.702;7.140;2022-10-31T12:34:31;6.93;;;4.40;;
9005;SDS011;62284;50.702;7.140;2022-10-31T12:37:08;5.07;;;4.50;;
9005;SDS011;62284;50.702;7.140;2022-10-31T12:39:42;7.20;;;4.80;;
9005;SDS011;62284;50.702;7.140;2022-10-31T12:42:18;6.88;;;4.40;;
9005;SDS011;62284;50.702;7.140;2022-10-31T12:45:04;5.43;;;4.60;;
9005;SDS011;62284;50.702;7.140;2022-10-31T12:47:46;6.15;;;4.30;;
9005;SDS011;62284;50.702;7.140;2022-10-31T12:50:31;5.35;;;4.10;;
9005;SDS011;62284;50.702;7.140;2022-10-31T12:53:12;7.00;;;4.70;;
9005;SDS011;62284;50.702;7.140;2022-10-31T12:55:53;4.95;;;4.20;;
9005;SDS011;62284;50.702;7.140;2022-10-31T12:58:29;7.60;;;4.50;;
9005;SDS011;62284;50.702;7.140;2022-10-31T13:01:02;5.55;;;4.68;;
9005;SDS011;62284;50.702;7.140;2022-10-31T13:03:35;6.82;;;4.80;;
9005;SDS011;62284;50.702;7.140;2022-10-31T13:06:13;5.63;;;4.47;;
9005;SDS011;62284;50.702;7.140;2022-10-31T13:08:45;6.10;;;4.18;;
9005;SDS011;62284;50.702;7.140;2022-10-31T13:11:18;6.13;;;4.55;;
9005;SDS011;62284;50.702;7.140;2022-10-31T13:13:53;5.15;;;4.05;;
9005;SDS011;62284;50.702;7.140;2022-10-31T13:16:28;4.90;;;4.35;;
9005;SDS011;62284;50.702;7.140;2022-10-31T13:19:00;5.55;;;4.90;;
9005;SDS011;62284;50.702;7.140;2022-10-31T13:21:34;5.53;;;4.47;;
9005;SDS011;62284;50.702;7.140;2022-10-31T13:24:04;6.85;;;4.60;;
9005;SDS011;62284;50.702;7.140;2022-10-31T13:26:38;8.88;;;5.05;;
9005;SDS011;62284;50.702;7.140;2022-10-31T13:29:11;8.30;;;5.13;;
9005;SDS011;62284;50.702;7.140;2022-10-31T13:31:44;6.78;;;4.28;;
9005;SDS011;62284;50.702;7.140;2022-10-31T13:34:16;5.68;;;4.43;;
9005;SDS011;62284;50.702;7.140;2022-10-31T13:36:50;6.20;;;4.30;;
9005;SDS011;62284;50.702;7.140;2022-10-31T13:39:25;5.55;;;4.78;;
9005;SDS011;62284;50.702;7.140;2022-10-31T13:41:59;6.20;;;4.60;;
9005;SDS011;62284;50.702;7.140;2022-10-31T13:44:34;5.18;;;4.68;;
9005;SDS011;62284;50.702;7.140;2022-10-31T13:47:03;6.45;;;4.30;;
9005;SDS011;62284;50.702;7.140;2022-10-31T13:49:46;5.45;;;4.22;;
9005;SDS011;62284;50.702;7.140;2022-10-31T13:52:21;8.35;;;4.60;;
9005;SDS011;62284;50.702;7.140;2022-10-31T13:54:50;6.88;;;4.88;;
9005;SDS011;62284;50.702;7.140;2022-10-31T13:57:31;7.35;;;5.03;;
9005;SDS011;62284;50.702;7.140;2022-10-31T14:00:05;5.57;;;4.60;;
9005;SDS011;62284;50.702;7.140;2022-10-31T14:02:47;5.03;;;4.50;;
9005;SDS011;62284;50.702;7.140;2022-10-31T14:05:19;7.43;;;4.63;;
9005;SDS011;62284;50.702;7.140;2022-10-31T14:07:50;5.72;;;4.22;;
9005;SDS011;62284;50.702;7.140;2022-10-31T14:10:22;8.32;;;4.47;;
9005;SDS011;62284;50.702;7.140;2022-10-31T14:12:53;5.15;;;4.53;;
9005;SDS011;62284;50.702;7.140;2022-10-31T14:15:29;4.80;;;4.22;;
9005;SDS011;62284;50.702;7.140;2022-10-31T14:17:57;6.50;;;4.47;;
9005;SDS011;62284;50.702;7.140;2022-10-31T14:20:31;5.22;;;4.50;;
9005;SDS011;62284;50.702;7.140;2022-10-31T14:23:12;6.82;;;4.80;;
9005;SDS011;62284;50.702;7.140;2022-10-31T14:26:05;6.35;;;4.60;;
9005;SDS011;62284;50.702;7.140;2022-10-31T14:28:42;6.15;;;4.60;;
9005;SDS011;62284;50.702;7.140;2022-10-31T14:31:21;8.55;;;5.20;;
9005;SDS011;62284;50.702;7.140;2022-10-31T14:33:58;6.20;;;4.70;;
9005;SDS011;62284;50.702;7.140;2022-10-31T14:36:28;5.22;;;3.90;;
9005;SDS011;62284;50.702;7.140;2022-10-31T14:39:08;6.68;;;4.90;;
9005;SDS011;62284;50.702;7.140;2022-10-31T14:41:49;5.20;;;4.70;;
9005;SDS011;62284;50.702;7.140;2022-10-31T14:47:21;6.18;;;4.90;;
9005;SDS011;62284;50.702;7.140;2022-10-31T14:50:20;6.05;;;4.68;;
9005;SDS011;62284;50.702;7.140;2022-10-31T14:52:52;6.97;;;5.13;;
9005;SDS011;62284;50.702;7.140;2022-10-31T14:55:24;8.10;;;6.20;;
9005;SDS011;62284;50.702;7.140;2022-10-31T14:57:52;5.22;;;4.72;;
9005;SDS011;62284;50.702;7.140;2022-10-31T15:00:22;6.70;;;4.70;;
9005;SDS011;62284;50.702;7.140;2022-10-31T15:02:56;5.13;;;4.63;;
9005;SDS011;62284;50.702;7.140;2022-10-31T15:05:29;5.65;;;4.70;;
9005;SDS011;62284;50.702;7.140;2022-10-31T15:07:57;5.57;;;4.40;;
9005;SDS011;62284;50.702;7.140;2022-10-31T15:10:27;6.03;;;4.45;;
9005;SDS011;62284;50.702;7.140;2022-10-31T15:13:07;6.82;;;4.45;;
9005;SDS011;62284;50.702;7.140;2022-10-31T15:15:35;5.45;;;4.22;;
9005;SDS011;62284;50.702;7.140;2022-10-31T15:18:03;7.07;;;4.57;;
9005;SDS011;62284;50.702;7.140;2022-10-31T15:20:33;6.45;;;4.70;;
9005;SDS011;62284;50.702;7.140;2022-10-31T15:23:09;7.38;;;4.85;;
9005;SDS011;62284;50.702;7.140;2022-10-31T15:25:42;6.60;;;4.30;;
9005;SDS011;62284;50.702;7.140;2022-10-31T15:28:13;8.27;;;4.90;;
9005;SDS011;62284;50.702;7.140;2022-10-31T15:30:49;4.82;;;4.32;;